Time;durP1;ratioP1;P1;durP2;ratioP2;P2;SDS_P1;SDS_P2;PMS_P1;PMS_P2;Temp;Humidity;BMP_temperature;BMP_pressure;BME280_temperature;BME280_humidity;BME280_pressure;Samples;Min_cycle;Max_cycle;Signal;HPM_P1;HPM_P2
2022/12/19 00:01:05;;;;;;;40.28;19.05;;;4.40;99.90;;;;;;5073972;28;20082;-77
2022/12/19 00:03:32;;;;;;;43.15;20.40;;;4.30;99.90;;;;;;5075480;28;20473;-77
2022/12/19 00:06:03;;;;;;;42.17;18.83;;;4.30;99.90;;;;;;5074109;28;20032;-77
2022/12/19 00:08:30;;;;;;;45.90;19.15;;;4.30;99.90;;;;;;5073223;28;20037;-78
2022/12/19 00:10:58;;;;;;;42.38;19.60;;;4.40;99.90;;;;;;5073408;28;20476;-78
2022/12/19 00:13:25;;;;;;;39.72;19.50;;;4.40;99.90;;;;;;5075197;28;20043;-78
2022/12/19 00:15:51;;;;;;;48.42;20.60;;;4.40;99.90;;;;;;5075210;28;20051;-79
2022/12/19 00:18:17;;;;;;;31.02;16.70;;;4.50;99.90;;;;;;5074953;28;20309;-78
2022/12/19 00:20:43;;;;;;;43.42;21.92;;;4.50;99.90;;;;;;5075101;28;20107;-79
2022/12/19 00:23:09;;;;;;;38.67;20.33;;;4.60;99.90;;;;;;5074557;28;20116;-79
2022/12/19 00:25:34;;;;;;;44.55;20.17;;;4.60;99.90;;;;;;5075150;28;20021;-79
2022/12/19 00:28:00;;;;;;;42.10;19.13;;;4.70;99.90;;;;;;5074504;28;20111;-79
2022/12/19 00:30:26;;;;;;;37.50;18.10;;;4.80;99.90;;;;;;5073729;28;20457;-79
2022/12/19 00:32:52;;;;;;;35.78;17.90;;;4.80;99.90;;;;;;5074795;28;20417;-79
2022/12/19 00:35:20;;;;;;;35.42;16.90;;;4.90;99.90;;;;;;5073618;28;20024;-79
2022/12/19 00:37:45;;;;;;;45.50;16.08;;;5.00;99.90;;;;;;5074420;28;20086;-80
2022/12/19 00:40:11;;;;;;;34.80;16.83;;;5.00;99.90;;;;;;5074393;28;20047;-79
2022/12/19 00:42:37;;;;;;;34.65;16.25;;;5.00;99.90;;;;;;5074467;28;20441;-79
2022/12/19 00:45:03;;;;;;;31.67;15.63;;;5.00;99.90;;;;;;5073203;28;20111;-79
2022/12/19 00:47:29;;;;;;;36.28;18.08;;;5.00;99.90;;;;;;5072922;28;20020;-79
2022/12/19 00:49:55;;;;;;;31.60;14.90;;;5.10;99.90;;;;;;5072957;28;20036;-79
2022/12/19 00:52:20;;;;;;;33.33;15.77;;;5.20;99.90;;;;;;5073767;28;20016;-79
2022/12/19 00:54:46;;;;;;;30.48;15.43;;;5.20;99.90;;;;;;5073985;28;20025;-79
2022/12/19 00:57:12;;;;;;;30.70;15.73;;;5.20;99.90;;;;;;5073453;28;20127;-79
2022/12/19 00:59:39;;;;;;;28.25;15.68;;;5.30;99.90;;;;;;5072848;28;20035;-79
2022/12/19 01:02:05;;;;;;;23.75;14.05;;;5.30;99.90;;;;;;5074079;28;20025;-79
2022/12/19 01:04:30;;;;;;;29.70;15.52;;;5.30;99.90;;;;;;5058855;28;20423;-78
2022/12/19 01:06:57;;;;;;;28.27;14.38;;;5.30;99.90;;;;;;5054393;28;20041;-78
2022/12/19 01:09:23;;;;;;;26.02;14.80;;;5.30;99.90;;;;;;5054747;28;20092;-78
2022/12/19 01:14:33;;;;;;;28.90;13.23;;;5.40;99.90;;;;;;5054021;28;20469;-78
2022/12/19 01:16:59;;;;;;;24.95;11.88;;;5.30;99.90;;;;;;5051848;28;20036;-79
2022/12/19 01:19:26;;;;;;;28.70;14.93;;;5.30;99.90;;;;;;5051940;28;20033;-78
2022/12/19 01:21:52;;;;;;;25.27;13.38;;;5.40;99.90;;;;;;5057481;28;20021;-78
2022/12/19 01:24:18;;;;;;;23.08;13.20;;;5.40;99.90;;;;;;5066747;28;20195;-77
2022/12/19 01:26:44;;;;;;;27.15;14.57;;;5.40;99.90;;;;;;5072511;28;20538;-77
2022/12/19 01:29:11;;;;;;;33.70;15.07;;;5.40;99.90;;;;;;5073769;28;20032;-77
2022/12/19 01:31:36;;;;;;;23.38;13.98;;;5.50;99.90;;;;;;5072373;28;20520;-78
2022/12/19 01:34:02;;;;;;;27.63;15.00;;;5.50;99.90;;;;;;5072213;28;20124;-77
2022/12/19 01:36:28;;;;;;;29.05;14.35;;;5.50;99.90;;;;;;5073102;28;20106;-77
2022/12/19 01:38:55;;;;;;;27.23;14.07;;;5.50;99.90;;;;;;5064948;28;20473;-77
2022/12/19 01:41:21;;;;;;;27.42;13.80;;;5.50;99.90;;;;;;5067934;28;20373;-77
2022/12/19 01:44:03;;;;;;;31.48;14.90;;;5.60;99.90;;;;;;5072254;28;20024;-78
2022/12/19 01:46:44;;;;;;;23.63;13.68;;;5.70;99.90;;;;;;5073677;28;20028;-78
2022/12/19 01:49:20;;;;;;;24.10;12.10;;;5.70;99.90;;;;;;5072124;28;20016;-78
2022/12/19 01:51:48;;;;;;;21.58;11.63;;;5.60;99.90;;;;;;5072129;28;20025;-77
2022/12/19 01:54:18;;;;;;;20.80;12.40;;;5.70;99.90;;;;;;5073122;28;20118;-77
2022/12/19 01:56:49;;;;;;;18.67;10.77;;;5.80;99.90;;;;;;5073020;28;20124;-77
2022/12/19 01:59:22;;;;;;;18.02;11.50;;;5.80;99.90;;;;;;5071874;28;20054;-78
2022/12/19 02:01:53;;;;;;;21.17;11.32;;;5.80;99.90;;;;;;5073346;28;20040;-78
2022/12/19 02:04:26;;;;;;;23.15;11.93;;;5.80;99.90;;;;;;5072548;28;20419;-78
2022/12/19 02:06:54;;;;;;;17.50;10.38;;;5.80;99.90;;;;;;5073148;28;20024;-78
2022/12/19 02:09:23;;;;;;;17.15;10.75;;;5.90;99.90;;;;;;5071589;28;20422;-77
2022/12/19 02:11:50;;;;;;;17.83;11.27;;;5.90;99.90;;;;;;5071853;28;20028;-77
2022/12/19 02:14:16;;;;;;;16.02;10.82;;;5.90;99.90;;;;;;5071470;28;20472;-77
2022/12/19 02:16:53;;;;;;;21.13;12.43;;;5.90;99.90;;;;;;5071650;28;20032;-77
2022/12/19 02:19:31;;;;;;;19.23;12.10;;;6.00;99.90;;;;;;5071137;28;20065;-77
2022/12/19 02:22:39;;;;;;;18.73;10.27;;;6.00;99.90;;;;;;5071573;28;20020;-77
2022/12/19 02:25:25;;;;;;;18.48;10.35;;;6.00;99.90;;;;;;5070755;28;20039;-77
2022/12/19 02:28:20;;;;;;;16.98;10.80;;;6.10;99.90;;;;;;5071738;28;20115;-77
2022/12/19 02:31:05;;;;;;;23.33;11.85;;;6.10;99.90;;;;;;5071005;28;20102;-77
2022/12/19 02:33:46;;;;;;;21.83;11.73;;;6.10;99.90;;;;;;5072541;28;20503;-77
2022/12/19 02:36:19;;;;;;;21.80;12.05;;;6.20;99.90;;;;;;5071066;28;20085;-76
2022/12/19 02:38:51;;;;;;;19.45;11.82;;;6.20;99.90;;;;;;5071428;28;20017;-77
2022/12/19 02:41:48;;;;;;;22.45;12.35;;;6.30;99.90;;;;;;5071502;28;20485;-77
2022/12/19 02:44:32;;;;;;;19.83;12.10;;;6.30;99.90;;;;;;5054045;28;20017;-78
2022/12/19 02:47:02;;;;;;;17.85;11.13;;;6.30;99.90;;;;;;5065303;28;20025;-78
2022/12/19 02:49:29;;;;;;;16.92;9.85;;;6.30;99.90;;;;;;5070957;28;20025;-77
2022/12/19 02:51:55;;;;;;;20.40;10.90;;;6.30;99.90;;;;;;5072612;28;20028;-77
2022/12/19 02:54:22;;;;;;;22.27;13.13;;;6.40;99.90;;;;;;5071074;28;20038;-77
2022/12/19 02:56:57;;;;;;;18.73;12.02;;;6.40;99.90;;;;;;5071268;28;20020;-77
2022/12/19 02:59:42;;;;;;;19.33;10.48;;;6.40;99.90;;;;;;5071227;28;20054;-77
2022/12/19 03:02:50;;;;;;;18.27;11.05;;;6.40;99.90;;;;;;5071133;28;20433;-77
2022/12/19 03:05:42;;;;;;;20.90;11.30;;;6.40;99.90;;;;;;5070522;28;20040;-77
2022/12/19 03:08:37;;;;;;;17.75;10.35;;;6.40;99.90;;;;;;5071156;28;20159;-78
2022/12/19 03:11:10;;;;;;;18.20;11.60;;;6.40;99.90;;;;;;5070760;28;20473;-78
2022/12/19 03:13:56;;;;;;;16.73;11.40;;;6.40;99.90;;;;;;5072431;28;20021;-77
2022/12/19 03:16:23;;;;;;;17.65;10.20;;;6.40;99.90;;;;;;5070867;28;20028;-78
2022/12/19 03:18:50;;;;;;;20.58;12.50;;;6.50;99.90;;;;;;5070830;28;20093;-78
2022/12/19 03:21:35;;;;;;;18.92;11.88;;;6.50;99.90;;;;;;5075624;28;20024;-77
2022/12/19 03:24:03;;;;;;;17.17;10.52;;;6.40;99.90;;;;;;5084050;28;20028;-77
2022/12/19 03:26:43;;;;;;;23.42;12.63;;;6.50;99.90;;;;;;5091045;28;20024;-77
2022/12/19 03:29:15;;;;;;;17.77;11.65;;;6.50;99.90;;;;;;5092553;28;20030;-77
2022/12/19 03:31:42;;;;;;;22.65;13.02;;;6.50;99.90;;;;;;5092034;28;20031;-77
2022/12/19 03:34:17;;;;;;;19.48;12.15;;;6.60;99.90;;;;;;5090960;28;20031;-77
2022/12/19 03:36:45;;;;;;;21.58;13.88;;;6.70;99.90;;;;;;5092116;28;20116;-77
2022/12/19 03:39:13;;;;;;;18.45;10.90;;;6.70;99.90;;;;;;5085846;28;20035;-78
2022/12/19 03:44:30;;;;;;;19.13;12.32;;;6.70;99.90;;;;;;5096092;28;20020;-78
2022/12/19 03:47:16;;;;;;;23.42;12.20;;;6.70;99.90;;;;;;5096070;28;20122;-77
2022/12/19 03:49:42;;;;;;;20.52;10.55;;;6.70;99.90;;;;;;5095703;28;20507;-77
2022/12/19 03:52:25;;;;;;;21.08;12.60;;;6.70;99.90;;;;;;5094734;28;20028;-77
2022/12/19 03:55:05;;;;;;;20.30;13.18;;;6.80;99.90;;;;;;5095824;28;20032;-77
2022/12/19 03:57:45;;;;;;;16.58;10.95;;;6.80;99.90;;;;;;5095873;28;20051;-77
2022/12/19 04:00:14;;;;;;;17.30;11.43;;;6.80;99.90;;;;;;5096365;28;20115;-77
2022/12/19 04:02:43;;;;;;;19.75;11.80;;;6.80;99.90;;;;;;5095494;28;20028;-77
2022/12/19 04:05:13;;;;;;;16.95;11.50;;;6.70;99.90;;;;;;5095820;28;20016;-77
2022/12/19 04:07:40;;;;;;;19.05;12.45;;;6.80;99.90;;;;;;5094342;28;20528;-77
2022/12/19 04:10:09;;;;;;;21.30;12.35;;;6.90;99.90;;;;;;5095517;28;20380;-77
2022/12/19 04:12:43;;;;;;;21.63;12.73;;;6.90;99.90;;;;;;5095675;28;20491;-77
2022/12/19 04:15:09;;;;;;;17.92;10.85;;;6.90;99.90;;;;;;5095351;28;20400;-78
2022/12/19 04:17:50;;;;;;;20.88;12.05;;;6.90;99.90;;;;;;5095494;28;20028;-77
2022/12/19 04:20:21;;;;;;;21.20;12.20;;;6.90;99.90;;;;;;5094284;28;20042;-77
2022/12/19 04:23:06;;;;;;;18.05;12.20;;;7.00;99.90;;;;;;5094101;28;20062;-77
2022/12/19 04:25:36;;;;;;;16.80;10.90;;;7.00;99.90;;;;;;5095203;28;20020;-77
2022/12/19 04:28:17;;;;;;;17.48;11.57;;;7.00;99.90;;;;;;5095278;28;20032;-77
2022/12/19 04:30:44;;;;;;;20.77;11.65;;;7.00;99.90;;;;;;5094871;28;20480;-77
2022/12/19 04:33:10;;;;;;;18.65;11.48;;;7.00;99.90;;;;;;5094995;28;20547;-77
2022/12/19 04:35:36;;;;;;;20.80;12.30;;;7.10;99.90;;;;;;5095022;28;20141;-77
2022/12/19 04:38:03;;;;;;;21.73;12.55;;;7.00;99.90;;;;;;5094891;28;20032;-77
2022/12/19 04:40:28;;;;;;;15.63;10.25;;;7.00;99.90;;;;;;5090976;28;20043;-77
2022/12/19 04:42:54;;;;;;;19.75;11.75;;;7.10;99.90;;;;;;5094810;28;20024;-77
2022/12/19 04:45:20;;;;;;;17.33;11.30;;;7.10;99.90;;;;;;5093598;28;20024;-77
2022/12/19 04:47:46;;;;;;;19.30;10.20;;;7.20;99.90;;;;;;5093595;28;20039;-76
2022/12/19 04:50:12;;;;;;;17.13;11.15;;;7.20;99.90;;;;;;5094780;28;20020;-77
2022/12/19 04:52:38;;;;;;;13.85;9.73;;;7.20;99.90;;;;;;5094714;28;20039;-77
2022/12/19 04:55:04;;;;;;;15.65;10.27;;;7.30;99.90;;;;;;5094183;28;20020;-78
2022/12/19 04:57:30;;;;;;;16.80;10.43;;;7.30;99.90;;;;;;5094630;28;20387;-77
2022/12/19 04:59:56;;;;;;;14.43;9.65;;;7.30;99.90;;;;;;5094526;28;20047;-77
2022/12/19 05:02:23;;;;;;;18.63;9.90;;;7.40;99.90;;;;;;5093371;28;20020;-77
2022/12/19 05:04:50;;;;;;;17.83;10.02;;;7.40;99.90;;;;;;5094174;28;20036;-77
2022/12/19 05:07:18;;;;;;;14.30;9.15;;;7.40;99.90;;;;;;5094518;28;20376;-78
2022/12/19 05:09:44;;;;;;;16.02;9.77;;;7.40;99.90;;;;;;5094145;28;20024;-78
2022/12/19 05:12:10;;;;;;;15.15;10.02;;;7.50;99.90;;;;;;5094440;28;20392;-78
2022/12/19 05:14:35;;;;;;;17.20;9.48;;;7.50;99.90;;;;;;5093800;28;20473;-78
2022/12/19 05:17:01;;;;;;;17.55;8.38;;;7.60;99.90;;;;;;5094834;28;20465;-78
2022/12/19 05:19:27;;;;;;;14.88;8.90;;;7.50;99.90;;;;;;5093773;28;20058;-78
2022/12/19 05:21:53;;;;;;;13.88;8.43;;;7.50;99.90;;;;;;5094491;28;20043;-78
2022/12/19 05:24:19;;;;;;;16.73;9.52;;;7.50;99.90;;;;;;5093099;28;20025;-78
2022/12/19 05:26:44;;;;;;;13.55;8.68;;;7.60;99.90;;;;;;5092895;28;20036;-78
2022/12/19 05:29:10;;;;;;;16.70;8.82;;;7.70;99.90;;;;;;5094114;28;20020;-78
2022/12/19 05:31:36;;;;;;;10.90;8.38;;;7.70;99.90;;;;;;5077665;28;20082;-77
2022/12/19 05:34:02;;;;;;;12.85;8.52;;;7.70;99.90;;;;;;5060323;28;20036;-78
2022/12/19 05:36:27;;;;;;;23.30;7.35;;;7.80;99.90;;;;;;5054236;28;20037;-78
2022/12/19 05:38:53;;;;;;;12.98;8.50;;;7.80;99.90;;;;;;5058201;28;20052;-78
2022/12/19 05:41:20;;;;;;;14.27;8.18;;;7.80;99.90;;;;;;5054098;28;20096;-78
2022/12/19 05:43:50;;;;;;;10.98;7.53;;;7.80;99.90;;;;;;5054138;28;20021;-78
2022/12/19 05:46:16;;;;;;;10.18;6.72;;;7.90;99.90;;;;;;5055853;28;20457;-78
2022/12/19 05:48:41;;;;;;;11.02;7.35;;;7.90;99.90;;;;;;5053575;28;20013;-79
2022/12/19 05:51:07;;;;;;;13.32;8.35;;;7.90;99.90;;;;;;5052508;28;20057;-78
2022/12/19 05:53:38;;;;;;;11.68;7.68;;;7.90;99.90;;;;;;5053764;28;20029;-78
2022/12/19 05:56:04;;;;;;;11.52;8.02;;;7.90;99.90;;;;;;5060166;28;20082;-78
2022/12/19 05:58:30;;;;;;;11.38;6.18;;;8.00;99.90;;;;;;5052512;28;20041;-78
2022/12/19 06:01:01;;;;;;;10.15;6.65;;;8.00;99.90;;;;;;5054837;28;20041;-77
2022/12/19 06:03:27;;;;;;;12.38;6.40;;;8.00;99.90;;;;;;5053267;28;20143;-78
2022/12/19 06:05:52;;;;;;;13.63;7.65;;;8.10;99.90;;;;;;5055319;28;20017;-79
2022/12/19 06:08:18;;;;;;;9.45;7.05;;;8.10;99.90;;;;;;5052447;28;20104;-79
2022/12/19 06:10:44;;;;;;;11.65;7.85;;;8.10;99.90;;;;;;5052166;28;20037;-79
2022/12/19 06:13:09;;;;;;;13.57;7.32;;;8.10;99.90;;;;;;5056739;28;20036;-79
2022/12/19 06:15:35;;;;;;;13.35;7.15;;;8.20;99.90;;;;;;5052547;28;20613;-80
2022/12/19 06:18:01;;;;;;;14.40;7.45;;;8.10;99.90;;;;;;5056840;28;20024;-79
2022/12/19 06:20:26;;;;;;;8.95;6.18;;;8.10;99.90;;;;;;5072726;28;20043;-79
2022/12/19 06:22:52;;;;;;;11.15;7.50;;;8.10;99.90;;;;;;5072568;28;20027;-80
2022/12/19 06:25:18;;;;;;;12.32;7.95;;;8.10;99.90;;;;;;5075625;28;20452;-79
2022/12/19 06:27:43;;;;;;;10.60;7.07;;;8.10;99.90;;;;;;5093290;28;20028;-80
2022/12/19 06:30:10;;;;;;;16.90;8.43;;;8.10;99.90;;;;;;5091666;28;20069;-81
2022/12/19 06:32:35;;;;;;;10.50;6.95;;;8.00;99.90;;;;;;5093030;28;20476;-78
2022/12/19 06:35:01;;;;;;;11.82;7.53;;;8.00;99.90;;;;;;5092966;28;20024;-79
2022/12/19 06:37:27;;;;;;;11.20;8.02;;;8.10;99.90;;;;;;5092907;28;20462;-78
2022/12/19 06:39:52;;;;;;;12.57;7.78;;;8.00;99.90;;;;;;5088572;28;20027;-78
2022/12/19 06:42:22;;;;;;;11.82;6.20;;;8.00;99.90;;;;;;5092692;28;20029;-78
2022/12/19 06:44:49;;;;;;;14.68;8.02;;;8.00;99.90;;;;;;5092373;28;20036;-78
2022/12/19 06:47:14;;;;;;;12.30;7.60;;;8.00;99.90;;;;;;5092897;28;20028;-77
2022/12/19 06:49:40;;;;;;;13.38;7.10;;;8.10;99.90;;;;;;5093215;28;20080;-77
2022/12/19 06:52:06;;;;;;;13.70;7.65;;;8.10;99.90;;;;;;5092832;28;20359;-78
2022/12/19 06:54:31;;;;;;;13.60;8.32;;;8.10;99.90;;;;;;5091299;28;20465;-77
2022/12/19 06:56:57;;;;;;;9.57;6.10;;;8.10;99.90;;;;;;5091215;28;20047;-78
2022/12/19 06:59:23;;;;;;;11.18;7.28;;;8.10;99.90;;;;;;5092619;28;20061;-79
2022/12/19 07:02:07;;;;;;;11.70;6.32;;;8.10;99.90;;;;;;5092600;28;20039;-78
2022/12/19 07:04:37;;;;;;;10.35;7.03;;;8.10;99.90;;;;;;5092412;28;20088;-78
2022/12/19 07:07:03;;;;;;;14.02;7.88;;;8.10;99.90;;;;;;5092667;28;20376;-79
2022/12/19 07:09:30;;;;;;;12.70;7.72;;;8.00;99.90;;;;;;5091850;28;20032;-78
2022/12/19 07:11:56;;;;;;;14.40;8.70;;;8.00;99.90;;;;;;5074265;28;20032;-79
2022/12/19 07:14:22;;;;;;;12.88;7.63;;;8.00;99.90;;;;;;5092386;28;20020;-81
2022/12/19 07:16:50;;;;;;;13.82;7.43;;;8.10;99.90;;;;;;5093791;28;20365;-80
2022/12/19 07:19:16;;;;;;;14.80;7.25;;;8.00;99.90;;;;;;5096505;28;20036;-80
2022/12/19 07:21:43;;;;;;;13.15;7.70;;;8.00;99.90;;;;;;5082937;28;20397;-80
2022/12/19 07:24:10;;;;;;;15.43;7.75;;;8.10;99.90;;;;;;5056448;28;20021;-80
2022/12/19 07:26:36;;;;;;;12.05;7.22;;;8.20;99.90;;;;;;5060968;28;20131;-80
2022/12/19 07:29:02;;;;;;;16.08;7.28;;;8.20;99.90;;;;;;5058052;28;20487;-80
2022/12/19 07:31:28;;;;;;;14.48;6.97;;;8.20;99.90;;;;;;5056000;28;20021;-79
2022/12/19 07:33:54;;;;;;;9.70;6.15;;;8.20;99.90;;;;;;5056979;28;20078;-78
2022/12/19 07:36:20;;;;;;;9.63;6.05;;;8.30;99.90;;;;;;5053792;28;20064;-80
2022/12/19 07:38:45;;;;;;;11.65;7.03;;;8.30;99.90;;;;;;5056268;28;20052;-79
2022/12/19 07:41:11;;;;;;;14.00;6.70;;;8.30;99.90;;;;;;5059936;28;20466;-78
2022/12/19 07:43:37;;;;;;;11.90;7.05;;;8.40;99.90;;;;;;5055497;28;20025;-78
2022/12/19 07:46:03;;;;;;;11.70;7.13;;;8.40;99.90;;;;;;5056063;28;20366;-79
2022/12/19 07:48:29;;;;;;;10.05;7.07;;;8.50;99.90;;;;;;5055966;28;20055;-79
2022/12/19 07:50:55;;;;;;;10.38;6.50;;;8.50;99.90;;;;;;5058275;28;20032;-80
2022/12/19 07:53:21;;;;;;;11.52;5.00;;;8.40;99.90;;;;;;5054068;28;20017;-80
2022/12/19 07:55:51;;;;;;;10.77;5.50;;;8.40;99.90;;;;;;5053827;28;20447;-78
2022/12/19 07:58:17;;;;;;;11.70;5.93;;;8.40;99.90;;;;;;5058299;28;20143;-79
2022/12/19 08:00:43;;;;;;;12.07;6.13;;;8.40;99.90;;;;;;5060062;28;20040;-79
2022/12/19 08:03:08;;;;;;;13.27;7.20;;;8.40;99.90;;;;;;5057681;28;20029;-78
2022/12/19 08:05:34;;;;;;;10.38;6.38;;;8.50;99.90;;;;;;5055276;28;20032;-78
2022/12/19 08:08:00;;;;;;;9.77;6.47;;;8.50;99.90;;;;;;5055487;28;20025;-79
2022/12/19 08:10:26;;;;;;;8.90;5.90;;;8.50;99.90;;;;;;5056055;28;20039;-79
2022/12/19 08:12:52;;;;;;;11.82;6.10;;;8.50;99.90;;;;;;5052648;28;20481;-78
2022/12/19 08:15:17;;;;;;;11.35;5.93;;;8.50;99.90;;;;;;5055656;28;20029;-78
2022/12/19 08:17:43;;;;;;;8.60;5.72;;;8.60;99.90;;;;;;5059225;28;20017;-79
2022/12/19 08:20:12;;;;;;;8.68;5.05;;;8.50;99.90;;;;;;5056670;28;20029;-79
2022/12/19 08:22:38;;;;;;;7.43;5.70;;;8.60;99.90;;;;;;5053273;28;20025;-80
2022/12/19 08:25:06;;;;;;;10.25;5.60;;;8.70;99.90;;;;;;5058278;28;20358;-80
2022/12/19 08:27:31;;;;;;;8.18;5.32;;;8.80;99.90;;;;;;5057659;28;20021;-78
2022/12/19 08:29:57;;;;;;;8.63;5.05;;;8.70;99.90;;;;;;5054856;28;20509;-78
2022/12/19 08:32:23;;;;;;;9.35;6.53;;;8.70;99.90;;;;;;5056412;28;20108;-79
2022/12/19 08:34:49;;;;;;;7.82;5.25;;;8.80;99.90;;;;;;5054508;28;20021;-80
2022/12/19 08:37:15;;;;;;;7.45;4.97;;;8.70;99.90;;;;;;5054327;28;20290;-78
2022/12/19 08:39:40;;;;;;;7.90;5.40;;;8.80;99.90;;;;;;5058149;28;20025;-78
2022/12/19 08:42:06;;;;;;;8.52;5.53;;;8.70;99.90;;;;;;5055378;28;20033;-79
2022/12/19 08:44:32;;;;;;;8.88;5.20;;;8.70;99.90;;;;;;5073048;28;20477;-81
2022/12/19 08:46:58;;;;;;;8.93;5.07;;;8.80;99.90;;;;;;5056274;28;20036;-79
2022/12/19 08:49:24;;;;;;;10.80;5.55;;;8.80;99.90;;;;;;5058312;28;20402;-80
2022/12/19 08:51:50;;;;;;;9.02;5.63;;;8.80;99.90;;;;;;5053925;28;20025;-80
2022/12/19 08:54:15;;;;;;;11.43;5.32;;;8.90;99.90;;;;;;5054542;28;20052;-80
2022/12/19 08:56:41;;;;;;;8.40;5.35;;;8.90;99.90;;;;;;5053366;28;20436;-80
2022/12/19 08:59:07;;;;;;;8.13;5.30;;;8.90;99.90;;;;;;5056935;28;20025;-80
2022/12/19 09:01:33;;;;;;;8.32;5.38;;;8.90;99.90;;;;;;5068373;28;20030;-80
2022/12/19 09:03:59;;;;;;;12.50;5.50;;;8.90;99.90;;;;;;5054691;28;20067;-80
2022/12/19 09:06:25;;;;;;;8.93;5.45;;;9.00;99.90;;;;;;5056083;28;20032;-79
2022/12/19 09:08:51;;;;;;;11.95;5.35;;;8.90;99.90;;;;;;5054434;28;20446;-81
2022/12/19 09:11:19;;;;;;;9.52;5.28;;;8.90;99.90;;;;;;5054142;28;20381;-80
2022/12/19 09:13:45;;;;;;;6.93;4.85;;;9.10;99.90;;;;;;5054776;28;20037;-80
2022/12/19 09:16:17;;;;;;;8.25;5.13;;;9.10;99.90;;;;;;5054999;28;20086;-80
2022/12/19 09:18:47;;;;;;;10.98;5.25;;;9.10;99.90;;;;;;5058229;28;20427;-78
2022/12/19 09:21:14;;;;;;;6.28;4.60;;;9.20;99.90;;;;;;5056003;28;20040;-78
2022/12/19 09:23:41;;;;;;;7.40;4.70;;;9.20;99.90;;;;;;5054224;28;20021;-79
2022/12/19 09:26:11;;;;;;;7.97;4.38;;;9.20;99.90;;;;;;5053908;28;20029;-78
2022/12/19 09:28:39;;;;;;;6.63;4.85;;;9.20;99.90;;;;;;5056678;28;20025;-78
2022/12/19 09:31:07;;;;;;;7.15;3.85;;;9.20;99.90;;;;;;5054449;28;20013;-78
2022/12/19 09:33:34;;;;;;;10.63;4.55;;;9.20;99.90;;;;;;5053586;28;20041;-79
2022/12/19 09:36:01;;;;;;;6.30;4.00;;;9.10;99.90;;;;;;5053471;28;20025;-77
2022/12/19 09:38:29;;;;;;;9.02;3.90;;;9.20;99.90;;;;;;5054658;28;20127;-81
2022/12/19 09:40:57;;;;;;;9.02;4.70;;;9.20;99.90;;;;;;5051730;28;20029;-81
2022/12/19 09:43:32;;;;;;;8.38;4.63;;;9.30;99.90;;;;;;5055648;28;20412;-81
2022/12/19 09:46:01;;;;;;;9.57;4.70;;;9.30;99.90;;;;;;5055292;28;20465;-81
2022/12/19 09:48:26;;;;;;;6.78;4.10;;;9.20;99.90;;;;;;5052878;28;20035;-84
2022/12/19 09:51:19;;;;;;;10.15;5.55;;;9.10;99.90;;;;;;5054795;28;20029;-83
2022/12/19 09:53:53;;;;;;;9.25;4.80;;;9.00;99.90;;;;;;5053337;28;20017;-79
2022/12/19 09:56:20;;;;;;;9.70;6.07;;;9.00;99.90;;;;;;5053997;28;20415;-80
2022/12/19 09:58:52;;;;;;;5.85;3.58;;;9.00;99.90;;;;;;5052422;28;20017;-80
2022/12/19 10:01:32;;;;;;;8.20;4.35;;;8.80;99.90;;;;;;5054316;28;20442;-81
2022/12/19 10:04:05;;;;;;;10.00;5.45;;;8.80;99.90;;;;;;5053759;28;20059;-80
2022/12/19 10:06:31;;;;;;;7.95;5.75;;;8.80;99.90;;;;;;5053633;28;20047;-81
2022/12/19 10:08:59;;;;;;;9.07;5.90;;;8.80;99.90;;;;;;5065306;28;20111;-80
2022/12/19 10:11:55;;;;;;;9.05;4.97;;;8.80;99.90;;;;;;5051567;28;20043;-79
2022/12/19 10:14:54;;;;;;;10.02;6.05;;;8.90;99.90;;;;;;5064845;28;20060;-82
2022/12/19 10:17:45;;;;;;;10.60;5.68;;;9.00;99.90;;;;;;5064769;28;20041;-81
2022/12/19 10:20:25;;;;;;;10.50;5.80;;;9.00;99.90;;;;;;5054834;28;20071;-81
2022/12/19 10:23:25;;;;;;;9.38;6.03;;;8.90;99.90;;;;;;5058841;28;20545;-81
2022/12/19 10:26:01;;;;;;;8.43;5.57;;;8.90;99.90;;;;;;5063740;28;20044;-79
2022/12/19 10:28:38;;;;;;;9.60;5.68;;;8.90;99.90;;;;;;5055998;28;20021;-78
2022/12/19 10:31:16;;;;;;;10.27;5.65;;;8.90;99.90;;;;;;5060442;28;20040;-79
2022/12/19 10:33:56;;;;;;;9.50;5.65;;;8.90;99.90;;;;;;5061819;28;20032;-79
2022/12/19 10:36:23;;;;;;;12.27;5.80;;;8.90;99.90;;;;;;5069201;28;20055;-79
2022/12/19 10:39:07;;;;;;;10.23;4.70;;;9.00;99.90;;;;;;5071097;28;20115;-79
2022/12/19 10:41:34;;;;;;;9.45;5.55;;;9.00;99.90;;;;;;5071968;28;20047;-80
2022/12/19 10:44:06;;;;;;;9.25;5.50;;;8.90;99.90;;;;;;5071503;28;20040;-79
2022/12/19 10:46:48;;;;;;;7.88;5.00;;;9.00;99.90;;;;;;5071731;28;20060;-79
2022/12/19 10:49:17;;;;;;;9.65;5.10;;;9.00;99.90;;;;;;5069380;28;20487;-79
2022/12/19 10:51:55;;;;;;;8.07;3.97;;;9.00;99.90;;;;;;5061844;28;20041;-79
2022/12/19 10:54:36;;;;;;;10.48;5.50;;;8.90;99.90;;;;;;5064893;28;20024;-79
2022/12/19 10:57:20;;;;;;;8.00;4.47;;;9.00;99.90;;;;;;5070541;28;20385;-78
2022/12/19 10:59:58;;;;;;;7.93;5.05;;;9.00;99.90;;;;;;5058434;28;20033;-79
2022/12/19 11:02:44;;;;;;;9.35;4.72;;;9.10;99.90;;;;;;5064096;28;20025;-80
2022/12/19 11:05:50;;;;;;;8.00;5.00;;;9.20;99.90;;;;;;5066933;28;20036;-79
2022/12/19 11:08:39;;;;;;;9.35;4.38;;;9.20;99.90;;;;;;5044150;28;20037;-79
2022/12/19 11:11:04;;;;;;;7.32;4.18;;;9.20;99.90;;;;;;5048776;28;20128;-78
2022/12/19 11:13:33;;;;;;;8.88;4.85;;;9.20;99.90;;;;;;5063169;28;20028;-79
2022/12/19 11:16:01;;;;;;;9.90;5.45;;;9.30;99.90;;;;;;5067343;28;20036;-79
2022/12/19 11:18:37;;;;;;;11.60;4.60;;;9.30;99.90;;;;;;5070062;28;20024;-79
2022/12/19 11:21:03;;;;;;;7.47;4.53;;;9.30;99.90;;;;;;5064575;28;20036;-78
2022/12/19 11:23:30;;;;;;;5.35;4.20;;;9.40;99.90;;;;;;5070185;28;20028;-79
2022/12/19 11:26:02;;;;;;;10.07;4.43;;;9.40;99.90;;;;;;5078813;28;20540;-79
2022/12/19 11:28:36;;;;;;;6.50;4.25;;;9.50;99.90;;;;;;5083979;28;20396;-78
2022/12/19 11:31:20;;;;;;;9.48;4.45;;;9.70;99.90;;;;;;5058707;28;20029;-78
2022/12/19 11:33:53;;;;;;;10.35;4.15;;;9.80;99.90;;;;;;5072002;28;20043;-79
2022/12/19 11:36:29;;;;;;;7.35;4.32;;;9.90;99.90;;;;;;5071064;28;20105;-79
2022/12/19 11:38:56;;;;;;;8.95;4.25;;;10.00;99.90;;;;;;5058239;28;20036;-78
2022/12/19 11:41:31;;;;;;;10.18;4.13;;;10.10;99.90;;;;;;5066797;28;20037;-79
2022/12/19 11:44:00;;;;;;;6.43;3.67;;;10.10;99.90;;;;;;5063420;28;20087;-78
2022/12/19 11:46:42;;;;;;;8.38;3.97;;;10.10;99.90;;;;;;5069493;28;20035;-79
2022/12/19 11:49:26;;;;;;;4.80;3.67;;;10.20;99.90;;;;;;5058399;28;20111;-78
2022/12/19 11:52:29;;;;;;;4.82;3.47;;;10.20;99.90;;;;;;5071206;28;20029;-78
2022/12/19 11:55:02;;;;;;;12.38;4.18;;;10.20;99.90;;;;;;5052502;28;20033;-80
2022/12/19 11:57:27;;;;;;;6.38;3.47;;;10.30;99.90;;;;;;5067087;28;20446;-79
2022/12/19 11:59:53;;;;;;;10.35;3.20;;;10.30;99.90;;;;;;5059861;28;20072;-80
2022/12/19 12:02:28;;;;;;;8.57;4.03;;;10.30;99.90;;;;;;5061671;28;20062;-79
2022/12/19 12:05:06;;;;;;;5.22;4.03;;;10.30;99.90;;;;;;5061495;28;20546;-80
2022/12/19 12:07:38;;;;;;;7.53;4.00;;;10.40;99.90;;;;;;5063156;28;20029;-79
2022/12/19 12:10:15;;;;;;;7.55;3.63;;;10.40;99.90;;;;;;5066514;28;20040;-79
2022/12/19 12:12:53;;;;;;;4.88;3.28;;;10.40;99.90;;;;;;5073279;28;20056;-77
2022/12/19 12:15:27;;;;;;;6.68;3.45;;;10.50;99.90;;;;;;5067854;28;20071;-78
2022/12/19 12:18:06;;;;;;;6.82;3.88;;;10.40;99.90;;;;;;5063243;28;20033;-77
2022/12/19 12:20:43;;;;;;;9.35;4.13;;;10.50;99.90;;;;;;5070959;28;20040;-76
2022/12/19 12:23:38;;;;;;;7.53;3.38;;;10.40;99.90;;;;;;5073700;28;20103;-77
2022/12/19 12:26:37;;;;;;;9.40;3.78;;;10.40;99.90;;;;;;5076704;28;20075;-78
2022/12/19 12:29:25;;;;;;;5.15;3.10;;;10.30;99.90;;;;;;5065660;28;20040;-79
2022/12/19 12:31:54;;;;;;;6.45;3.53;;;10.40;99.90;;;;;;5074302;28;20063;-79
2022/12/19 12:35:05;;;;;;;6.72;3.63;;;10.50;99.90;;;;;;5082068;28;20032;-81
2022/12/19 12:37:42;;;;;;;7.47;4.22;;;10.50;99.90;;;;;;5063236;28;20472;-79
2022/12/19 12:40:30;;;;;;;8.30;3.45;;;10.50;99.90;;;;;;5069843;28;20048;-80
2022/12/19 12:43:20;;;;;;;6.75;3.67;;;10.50;99.90;;;;;;5071075;28;20035;-79
2022/12/19 12:45:46;;;;;;;9.55;3.28;;;10.50;99.90;;;;;;5077470;28;20376;-80
2022/12/19 12:48:31;;;;;;;5.60;3.75;;;10.50;99.90;;;;;;5069433;28;20033;-80
2022/12/19 12:50:59;;;;;;;4.07;2.90;;;10.50;99.90;;;;;;5068701;28;20024;-80
2022/12/19 12:53:34;;;;;;;6.78;3.00;;;10.50;99.90;;;;;;5072895;28;20460;-80
2022/12/19 12:56:03;;;;;;;6.18;3.40;;;10.50;99.90;;;;;;5071851;28;20506;-80
2022/12/19 12:58:54;;;;;;;7.07;3.20;;;10.60;99.90;;;;;;5068160;28;20032;-78
2022/12/19 13:01:33;;;;;;;5.53;2.97;;;10.60;99.90;;;;;;5073052;28;20636;-81
2022/12/19 13:04:26;;;;;;;8.82;3.47;;;10.60;99.90;;;;;;5071995;28;20107;-80
2022/12/19 13:06:51;;;;;;;5.75;2.97;;;10.60;99.90;;;;;;5069899;28;20424;-81
2022/12/19 13:09:25;;;;;;;6.22;3.47;;;10.60;99.90;;;;;;5069173;28;20083;-80
2022/12/19 13:15:31;;;;;;;7.18;3.00;;;10.60;99.90;;;;;;5068184;28;20036;-81